Time;durP1;ratioP1;P1;durP2;ratioP2;P2;SDS_P1;SDS_P2;PMS_P1;PMS_P2;Temp;Humidity;BMP_temperature;BMP_pressure;BME280_temperature;BME280_humidity;BME280_pressure;Samples;Min_cycle;Max_cycle;Signal;HPM_P1;HPM_P2
2021/04/20 00:00:41;;;;;;;37.13;18.73;;;;;;;3.95;71.07;99828.52;232492;1176;116432;-67
2021/04/20 00:05:52;;;;;;;30.50;20.10;;;;;;;3.92;72.02;99826.26;233510;1175;115071;-67
2021/04/20 00:10:56;;;;;;;23.08;14.08;;;;;;;3.94;71.53;99818.97;234411;1174;114797;-65
2021/04/20 00:15:59;;;;;;;30.88;17.45;;;;;;;3.80;72.20;99817.20;233528;1169;115468;-65
2021/04/20 00:21:02;;;;;;;35.37;19.80;;;;;;;3.73;71.82;99811.87;234272;1174;115138;-65
2021/04/20 00:26:05;;;;;;;27.40;19.73;;;;;;;3.79;72.54;99818.21;233906;1174;115180;-66
2021/04/20 00:31:08;;;;;;;28.10;18.83;;;;;;;3.87;72.70;99825.19;234034;1174;115285;-68
2021/04/20 00:36:11;;;;;;;35.45;21.10;;;;;;;3.78;72.47;99827.13;232513;1174;115068;-66
2021/04/20 00:41:16;;;;;;;32.07;22.53;;;;;;;3.68;72.78;99818.70;232570;1174;114880;-66
2021/04/20 00:46:21;;;;;;;30.85;21.75;;;;;;;3.61;72.52;99821.30;232965;1174;115131;-66
2021/04/20 00:51:26;;;;;;;39.95;22.95;;;;;;;3.63;73.20;99814.02;234099;1174;115165;-66
2021/04/20 00:56:30;;;;;;;34.18;21.95;;;;;;;3.73;72.99;99801.32;233573;1174;116007;-66
2021/04/20 01:01:38;;;;;;;34.13;22.45;;;;;;;3.83;72.81;99794.92;232446;1174;115305;-66
2021/04/20 01:06:50;;;;;;;36.43;23.73;;;;;;;3.92;73.44;99793.80;233127;1174;115559;-64
2021/04/20 01:11:54;;;;;;;35.13;23.80;;;;;;;4.06;73.97;99792.88;232471;1174;116114;-65
2021/04/20 01:16:57;;;;;;;35.80;22.55;;;;;;;4.17;74.13;99792.37;232620;1174;115864;-65
2021/04/20 01:22:02;;;;;;;37.90;21.80;;;;;;;4.11;73.28;99787.03;233640;1174;115476;-65
2021/04/20 01:27:06;;;;;;;33.08;22.80;;;;;;;4.07;73.42;99797.15;232506;1174;115140;-68
2021/04/20 01:32:10;;;;;;;27.45;19.55;;;;;;;4.14;74.43;99792.75;233185;1176;115425;-67
2021/04/20 01:37:14;;;;;;;36.45;24.40;;;;;;;4.10;73.85;99780.94;233591;1176;115651;-67
2021/04/20 01:42:18;;;;;;;38.73;23.75;;;;;;;3.97;73.52;99794.05;232902;1174;115074;-67
2021/04/20 01:47:26;;;;;;;41.13;23.98;;;;;;;3.91;73.82;99792.98;232420;1175;115733;-67
2021/04/20 01:52:30;;;;;;;43.95;25.75;;;;;;;3.93;73.24;99796.25;233140;1176;115854;-66
2021/04/20 01:57:35;;;;;;;47.08;28.08;;;;;;;3.84;73.72;99792.10;233545;1176;116335;-69
2021/04/20 02:02:41;;;;;;;31.68;21.73;;;;;;;3.72;73.45;99789.14;232625;1176;116529;-65
2021/04/20 02:07:45;;;;;;;40.50;25.93;;;;;;;3.62;74.15;99791.30;232841;1174;115037;-65
2021/04/20 02:12:49;;;;;;;35.78;25.50;;;;;;;3.60;74.41;99784.58;234442;1175;115468;-66
2021/04/20 02:17:56;;;;;;;45.77;27.77;;;;;;;3.67;74.77;99785.44;234227;1174;114717;-66
2021/04/20 02:22:59;;;;;;;50.73;31.53;;;;;;;3.73;74.48;99782.87;235034;1174;115124;-65
2021/04/20 02:28:03;;;;;;;36.30;22.90;;;;;;;3.80;74.83;99785.57;234446;1176;115061;-64
2021/04/20 02:33:08;;;;;;;46.53;26.65;;;;;;;3.83;74.35;99794.92;235071;1176;115103;-65
2021/04/20 02:38:15;;;;;;;37.43;24.47;;;;;;;3.89;74.50;99780.98;235001;1170;114868;-64
2021/04/20 02:43:19;;;;;;;42.68;25.00;;;;;;;3.85;74.56;99792.91;234428;1176;115679;-64
2021/04/20 02:48:25;;;;;;;36.70;23.37;;;;;;;3.70;74.44;99780.61;234207;1169;115197;-65
2021/04/20 02:53:30;;;;;;;21.33;18.00;;;;;;;3.64;75.01;99786.66;233639;1176;115643;-68
2021/04/20 02:58:35;;;;;;;42.43;25.57;;;;;;;3.68;74.72;99787.89;233234;1175;115855;-64
2021/04/20 03:03:40;;;;;;;42.80;27.43;;;;;;;3.78;75.31;99782.30;234052;1176;114985;-64
2021/04/20 03:08:49;;;;;;;41.80;24.70;;;;;;;3.87;74.80;99775.91;233169;1176;115621;-65
2021/04/20 03:13:58;;;;;;;38.20;24.60;;;;;;;3.94;75.68;99783.88;232739;1170;117370;-64
2021/04/20 03:19:08;;;;;;;40.43;26.67;;;;;;;4.05;75.29;99773.59;233008;1176;115435;-65
2021/04/20 03:24:21;;;;;;;46.25;28.48;;;;;;;4.15;76.17;99775.91;232844;1175;115922;-64
2021/04/20 03:29:26;;;;;;;47.80;30.15;;;;;;;4.27;76.42;99774.39;232653;1176;115798;-64
2021/04/20 03:34:36;;;;;;;55.70;33.65;;;;;;;4.35;75.88;99768.94;233193;1177;116056;-65
2021/04/20 03:39:48;;;;;;;45.70;29.20;;;;;;;4.43;76.65;99767.97;232955;1174;115480;-65
2021/04/20 03:44:58;;;;;;;44.77;28.17;;;;;;;4.52;76.38;99768.64;232918;1175;115503;-65
2021/04/20 03:50:04;;;;;;;39.57;26.10;;;;;;;4.60;75.95;99766.63;233232;1174;116554;-66
2021/04/20 03:55:11;;;;;;;46.03;28.73;;;;;;;4.84;76.43;99761.89;232609;1174;116163;-66
2021/04/20 04:00:18;;;;;;;49.30;29.28;;;;;;;5.14;75.61;99760.58;233638;1174;115051;-65
2021/04/20 04:05:27;;;;;;;38.78;25.60;;;;;;;5.20;75.33;99761.62;233973;1174;115885;-66
2021/04/20 04:10:32;;;;;;;43.70;27.75;;;;;;;5.25;75.08;99748.59;232525;1175;115010;-66
2021/04/20 04:15:38;;;;;;;47.23;27.63;;;;;;;5.25;74.86;99751.23;232726;1174;115104;-65
2021/04/20 04:20:43;;;;;;;39.10;26.43;;;;;;;5.20;75.43;99751.05;233902;1174;137256;-64
2021/04/20 04:25:56;;;;;;;36.48;23.95;;;;;;;5.30;74.94;99772.60;235120;1174;114585;-65
2021/04/20 04:31:05;;;;;;;37.08;24.15;;;;;;;5.45;75.04;99769.80;235042;1170;115368;-65
2021/04/20 04:36:15;;;;;;;40.80;25.85;;;;;;;5.54;75.12;99768.58;235109;1174;115034;-65
2021/04/20 04:41:20;;;;;;;34.35;25.15;;;;;;;5.72;74.89;99777.57;234645;1174;115013;-65
2021/04/20 04:46:24;;;;;;;39.90;25.93;;;;;;;6.02;74.75;99778.02;233771;1174;115243;-65
2021/04/20 04:51:32;;;;;;;38.30;24.30;;;;;;;6.39;74.66;99784.50;233323;1174;115150;-65
2021/04/20 04:56:36;;;;;;;46.73;27.17;;;;;;;6.74;75.15;99776.25;232536;1175;115828;-64
2021/04/20 05:01:41;;;;;;;34.05;25.10;;;;;;;7.01;74.39;99771.69;233337;1174;116441;-66
2021/04/20 05:06:47;;;;;;;43.65;29.23;;;;;;;7.27;74.62;99765.44;232946;1174;115267;-65
2021/04/20 05:11:53;;;;;;;46.30;28.83;;;;;;;7.51;74.90;99769.98;232918;1174;115964;-64
2021/04/20 05:16:56;;;;;;;40.20;25.23;;;;;;;7.74;74.03;99764.92;233308;1176;114974;-65
2021/04/20 05:22:00;;;;;;;33.80;23.53;;;;;;;8.64;73.02;99768.00;234253;1174;115836;-65
2021/04/20 05:27:06;;;;;;;40.03;23.87;;;;;;;10.87;71.21;99761.33;232876;1174;115786;-65
2021/04/20 05:32:10;;;;;;;35.88;22.05;;;;;;;11.25;70.97;99772.23;232690;1175;115557;-66
2021/04/20 05:37:14;;;;;;;31.93;23.13;;;;;;;12.09;69.20;99772.36;233067;1174;116025;-65
2021/04/20 05:42:17;;;;;;;42.28;22.33;;;;;;;12.10;69.04;99772.13;232910;1174;115846;-65
2021/04/20 05:47:25;;;;;;;26.40;18.20;;;;;;;11.76;68.71;99771.30;233264;1176;115294;-66
2021/04/20 05:52:33;;;;;;;23.98;16.28;;;;;;;11.58;68.84;99778.70;233405;1174;116977;-66
2021/04/20 05:57:38;;;;;;;20.23;12.63;;;;;;;11.46;68.93;99773.41;232832;1174;116147;-66
2021/04/20 06:02:43;;;;;;;31.63;9.83;;;;;;;11.41;68.54;99775.97;232617;1175;116639;-66
2021/04/20 06:07:51;;;;;;;10.40;6.98;;;;;;;11.48;68.51;99774.79;232581;1176;117299;-66
2021/04/20 06:12:57;;;;;;;9.08;7.28;;;;;;;11.60;68.04;99771.27;232925;1177;117436;-66
2021/04/20 06:18:00;;;;;;;9.47;8.23;;;;;;;11.70;67.22;99761.55;232580;1176;116368;-65
2021/04/20 06:23:06;;;;;;;14.95;7.05;;;;;;;11.80;66.93;99760.95;233758;1175;115245;-66
2021/04/20 06:28:12;;;;;;;13.43;7.17;;;;;;;11.94;67.11;99767.57;234957;1174;116123;-65
2021/04/20 06:33:17;;;;;;;8.43;5.77;;;;;;;12.10;66.43;99772.13;234931;1176;115753;-64
2021/04/20 06:38:20;;;;;;;7.63;6.83;;;;;;;12.36;66.19;99764.48;234993;1174;115029;-65
2021/04/20 06:43:28;;;;;;;8.27;6.77;;;;;;;12.68;65.60;99767.33;234948;1174;116773;-65
2021/04/20 06:48:42;;;;;;;8.33;6.48;;;;;;;13.30;64.50;99772.38;235009;1167;115061;-68
2021/04/20 06:53:49;;;;;;;8.47;7.37;;;;;;;14.10;64.10;99763.45;233366;1175;115852;-67
2021/04/20 06:59:02;;;;;;;9.90;6.73;;;;;;;14.57;62.86;99762.73;234272;1175;115358;-67
2021/04/20 07:04:23;;;;;;;6.43;4.60;;;;;;;14.91;60.88;99763.16;233451;1174;117807;-68
2021/04/20 07:09:30;;;;;;;5.38;4.88;;;;;;;15.68;61.06;99768.48;232689;1174;115619;-67
2021/04/20 07:14:37;;;;;;;6.50;5.80;;;;;;;16.08;61.01;99761.52;233612;1174;116849;-68
2021/04/20 07:19:48;;;;;;;7.90;6.03;;;;;;;16.28;59.81;99763.36;233587;1170;114973;-67
2021/04/20 07:25:12;;;;;;;6.73;5.37;;;;;;;16.88;59.19;99761.62;233323;1175;115180;-66
2021/04/20 07:30:32;;;;;;;9.70;5.48;;;;;;;17.55;58.27;99762.88;232569;1175;114932;-66
2021/04/20 07:35:56;;;;;;;6.35;4.20;;;;;;;18.06;57.26;99758.73;232368;1175;115496;-71
2021/04/20 07:41:18;;;;;;;5.60;4.47;;;;;;;18.47;56.16;99756.45;232659;1174;115432;-68
2021/04/20 07:46:27;;;;;;;6.13;4.80;;;;;;;18.65;55.12;99751.45;232715;1174;116751;-69
2021/04/20 07:51:59;;;;;;;5.10;4.60;;;;;;;18.71;53.84;99747.58;233234;1176;115435;-68
2021/04/20 07:57:41;;;;;;;7.25;4.55;;;;;;;18.84;53.81;99744.20;232627;1176;115459;-68
2021/04/20 08:02:56;;;;;;;6.23;5.63;;;;;;;18.81;51.56;99753.67;233128;1175;115963;-67
2021/04/20 08:08:20;;;;;;;7.08;4.70;;;;;;;18.79;51.76;99752.35;233158;1176;115482;-67
2021/04/20 08:13:58;;;;;;;9.00;5.17;;;;;;;18.83;51.66;99739.89;232608;1173;115669;-66
2021/04/20 08:19:02;;;;;;;8.65;5.03;;;;;;;18.84;51.09;99741.50;233163;1175;114901;-67
2021/04/20 08:24:08;;;;;;;4.97;4.43;;;;;;;18.83;49.63;99739.89;232426;1175;115504;-67
2021/04/20 08:29:18;;;;;;;5.77;4.37;;;;;;;18.53;47.87;99746.41;233675;1176;115855;-68
2021/04/20 08:34:33;;;;;;;6.10;5.60;;;;;;;18.27;48.48;99736.98;232403;1176;115065;-72
2021/04/20 08:40:31;;;;;;;8.60;5.30;;;;;;;18.50;49.90;99736.98;234987;1176;115189;-65
2021/04/20 08:46:00;;;;;;;13.13;6.33;;;;;;;18.54;48.68;99737.23;235007;1176;115442;-68
2021/04/20 08:51:25;;;;;;;6.30;5.73;;;;;;;18.33;48.51;99735.84;235030;1176;115902;-65
2021/04/20 08:56:50;;;;;;;4.88;4.40;;;;;;;17.93;46.81;99737.02;235002;1174;115979;-65
2021/04/20 09:02:30;;;;;;;4.17;3.83;;;;;;;17.72;46.44;99737.20;234993;1176;116152;-67
2021/04/20 09:07:53;;;;;;;3.80;2.80;;;;;;;17.68;45.99;99733.45;234050;1175;115040;-65
2021/04/20 09:13:13;;;;;;;3.33;3.03;;;;;;;17.64;44.97;99724.28;233430;1176;115523;-71
2021/04/20 09:18:20;;;;;;;3.25;3.05;;;;;;;17.97;44.57;99722.69;233468;1175;115612;-70
2021/04/20 09:23:27;;;;;;;4.95;3.25;;;;;;;18.16;43.82;99717.38;232499;1174;116162;-68
2021/04/20 09:28:39;;;;;;;4.40;3.10;;;;;;;17.96;43.39;99712.98;233681;1174;115766;-66
2021/04/20 09:33:51;;;;;;;4.80;2.67;;;;;;;17.59;42.56;99721.62;233484;1174;116029;-68
2021/04/20 09:38:57;;;;;;;3.95;3.38;;;;;;;17.29;42.38;99714.55;232923;1175;115953;-65
2021/04/20 09:44:00;;;;;;;3.23;2.33;;;;;;;17.50;42.03;99712.52;232625;1174;116363;-68
2021/04/20 09:49:07;;;;;;;3.15;2.85;;;;;;;17.81;42.13;99705.83;232326;1174;117528;-68
2021/04/20 09:54:20;;;;;;;3.25;2.90;;;;;;;18.24;42.46;99705.97;232279;1175;117226;-72
2021/04/20 09:59:29;;;;;;;2.70;2.50;;;;;;;18.55;40.37;99702.94;232693;1174;116648;-70
2021/04/20 10:04:41;;;;;;;16.20;3.00;;;;;;;18.50;40.30;99696.50;232542;1175;115692;-72
2021/04/20 10:09:54;;;;;;;8.27;5.00;;;;;;;18.60;41.14;99692.92;232545;1175;116136;-72
2021/04/20 10:15:03;;;;;;;8.53;5.97;;;;;;;18.21;42.79;99689.55;232483;1176;116087;-71
2021/04/20 10:20:19;;;;;;;6.88;6.28;;;;;;;17.94;43.33;99684.70;232378;1174;116263;-68
2021/04/20 10:25:33;;;;;;;12.43;9.65;;;;;;;17.65;43.68;99679.30;234141;1176;117757;-65
2021/04/20 10:30:41;;;;;;;10.73;4.30;;;;;;;17.43;43.88;99688.57;233533;1176;117246;-67
2021/04/20 10:35:46;;;;;;;8.43;5.53;;;;;;;17.41;43.95;99681.88;232983;1175;115681;-69
2021/04/20 10:40:54;;;;;;;5.37;4.57;;;;;;;17.81;43.67;99669.97;233490;1175;115437;-65
2021/04/20 10:46:07;;;;;;;4.90;4.03;;;;;;;18.18;43.42;99653.15;233374;1170;115985;-65
2021/04/20 10:51:11;;;;;;;4.35;3.30;;;;;;;18.73;42.78;99664.39;234997;1176;115861;-70
2021/04/20 10:56:17;;;;;;;3.95;3.65;;;;;;;18.56;41.70;99664.05;234932;1176;116502;-71
2021/04/20 11:01:23;;;;;;;3.58;3.03;;;;;;;18.08;40.24;99659.45;232587;1176;115298;-68
2021/04/20 11:07:03;;;;;;;3.70;3.07;;;;;;;17.81;39.62;99649.20;232411;1175;115754;-69
2021/04/20 11:12:18;;;;;;;4.98;3.83;;;;;;;18.16;40.44;99634.55;233708;1174;115914;-68
2021/04/20 11:17:29;;;;;;;6.00;4.38;;;;;;;18.76;40.01;99631.41;232685;1174;114595;-66
2021/04/20 11:22:48;;;;;;;3.00;2.80;;;;;;;19.21;39.21;99637.25;233226;1174;118337;-67
2021/04/20 11:27:56;;;;;;;3.23;2.93;;;;;;;18.96;37.84;99631.11;232389;1174;116908;-68
2021/04/20 11:33:05;;;;;;;3.33;3.03;;;;;;;18.34;37.99;99624.91;232432;1176;116084;-69
2021/04/20 11:38:13;;;;;;;7.60;2.90;;;;;;;17.80;38.16;99619.83;232970;1174;116023;-67
2021/04/20 11:43:17;;;;;;;7.87;3.13;;;;;;;17.40;39.55;99620.98;232421;1176;115512;-68
2021/04/20 11:48:32;;;;;;;3.30;3.00;;;;;;;17.36;40.25;99614.55;232849;1174;116000;-68
2021/04/20 11:53:40;;;;;;;3.08;2.88;;;;;;;17.26;40.21;99626.20;232735;1176;139702;-68
2021/04/20 11:58:47;;;;;;;3.15;2.35;;;;;;;17.21;39.20;99617.35;232907;1175;115835;-68
2021/04/20 12:04:01;;;;;;;3.63;2.90;;;;;;;17.33;38.75;99615.11;232681;1176;116216;-68
2021/04/20 12:09:07;;;;;;;2.98;2.68;;;;;;;17.80;39.09;99603.65;232448;1174;115964;-68
2021/04/20 12:14:11;;;;;;;2.55;2.35;;;;;;;18.11;39.13;99598.73;233454;1174;116131;-68
2021/04/20 12:19:22;;;;;;;3.30;3.00;;;;;;;18.22;38.79;99600.23;233453;1174;115427;-68
2021/04/20 12:24:40;;;;;;;3.58;2.90;;;;;;;18.03;38.07;99600.19;232809;1174;115672;-68
2021/04/20 12:29:45;;;;;;;3.00;2.67;;;;;;;17.80;37.43;99600.95;233400;1174;116622;-72
2021/04/20 12:34:57;;;;;;;3.78;2.75;;;;;;;17.69;37.91;99594.08;233668;1174;117696;-71
2021/04/20 12:40:05;;;;;;;3.80;2.80;;;;;;;17.81;37.92;99589.08;233827;1174;116803;-69
2021/04/20 12:45:12;;;;;;;4.45;3.78;;;;;;;17.67;37.64;99585.47;234963;1176;117049;-69
2021/04/20 12:50:21;;;;;;;3.13;2.85;;;;;;;17.76;37.74;99573.75;235149;1176;116731;-68
2021/04/20 12:55:28;;;;;;;3.35;3.08;;;;;;;17.86;37.49;99569.35;234969;1175;116348;-69
2021/04/20 13:00:35;;;;;;;3.00;2.80;;;;;;;18.09;37.04;99572.03;234223;1173;118238;-73
2021/04/20 13:05:41;;;;;;;3.20;3.00;;;;;;;18.45;36.05;99571.59;233669;1174;116084;-67
2021/04/20 13:10:55;;;;;;;3.08;2.83;;;;;;;18.67;36.55;99569.15;234422;1174;115994;-71
2021/04/20 13:16:03;;;;;;;3.40;3.10;;;;;;;18.76;36.85;99564.70;232593;1174;115821;-69
2021/04/20 13:21:09;;;;;;;2.90;2.70;;;;;;;18.88;36.95;99552.66;232790;1175;116860;-69
2021/04/20 13:26:19;;;;;;;2.18;1.98;;;;;;;18.82;36.21;99554.64;233355;1176;115747;-69
2021/04/20 13:31:27;;;;;;;3.87;2.77;;;;;;;18.78;36.66;99554.41;233310;1174;116620;-71
2021/04/20 13:36:41;;;;;;;3.18;2.95;;;;;;;18.72;36.17;99544.78;232967;1175;115957;-68
2021/04/20 13:42:02;;;;;;;4.25;3.13;;;;;;;18.71;36.83;99547.77;232957;1176;117183;-70
2021/04/20 13:47:13;;;;;;;2.88;2.63;;;;;;;18.79;36.09;99545.22;233521;1175;116419;-69
2021/04/20 13:52:23;;;;;;;3.53;3.20;;;;;;;18.34;36.15;99533.16;232424;1174;117462;-69
2021/04/20 13:57:32;;;;;;;2.75;2.55;;;;;;;18.06;36.56;99526.76;232522;1175;115928;-69
2021/04/20 14:02:46;;;;;;;4.87;4.43;;;;;;;17.74;37.97;99529.30;232577;1175;115964;-70
2021/04/20 14:07:55;;;;;;;4.43;4.05;;;;;;;17.68;39.00;99533.97;232566;1176;116080;-68
2021/04/20 14:13:13;;;;;;;5.17;4.77;;;;;;;17.37;40.02;99536.14;233045;1175;115726;-68
2021/04/20 14:18:21;;;;;;;5.00;4.40;;;;;;;17.14;40.83;99534.17;233218;1174;115932;-68
2021/04/20 14:23:29;;;;;;;4.57;4.17;;;;;;;17.00;41.29;99541.30;233760;1174;115418;-68
2021/04/20 14:28:37;;;;;;;4.83;3.43;;;;;;;16.93;41.81;99540.81;233671;1174;116474;-68
2021/04/20 14:33:43;;;;;;;6.48;5.05;;;;;;;16.97;41.91;99545.36;233028;1176;117172;-68
2021/04/20 14:38:48;;;;;;;9.45;4.43;;;;;;;16.88;42.52;99538.16;233521;1176;115972;-69
2021/04/20 14:43:55;;;;;;;10.27;7.13;;;;;;;16.81;42.66;99546.58;233532;1175;115812;-68
2021/04/20 14:48:59;;;;;;;6.07;4.83;;;;;;;16.74;43.18;99543.38;232874;1175;116771;-67
2021/04/20 14:54:07;;;;;;;8.13;5.68;;;;;;;16.51;43.45;99542.94;233527;1175;115410;-68
2021/04/20 14:59:21;;;;;;;8.08;5.58;;;;;;;16.29;43.65;99542.53;235065;1174;116719;-69
2021/04/20 15:04:33;;;;;;;5.60;5.20;;;;;;;16.22;44.00;99547.39;234036;1174;115486;-68
2021/04/20 15:09:52;;;;;;;6.08;5.35;;;;;;;16.26;43.88;99550.34;233140;1176;116594;-68
2021/04/20 15:15:12;;;;;;;8.73;5.20;;;;;;;16.20;44.01;99546.89;233488;1174;115074;-69
2021/04/20 15:20:18;;;;;;;6.78;4.78;;;;;;;16.12;43.76;99550.15;234690;1175;116905;-68
2021/04/20 15:25:25;;;;;;;;;;;;;;;15.96;44.25;99544.02;234008;1175;116175;-68
2021/04/20 15:30:34;;;;;;;6.03;5.50;;;;;;;15.83;44.17;99539.23;234593;1175;103118;-68
2021/04/20 15:35:53;;;;;;;10.55;5.98;;;;;;;15.72;44.76;99543.83;232524;1174;115827;-67
2021/04/20 15:41:00;;;;;;;8.30;5.48;;;;;;;15.56;44.65;99539.58;232798;1174;116163;-69
2021/04/20 15:46:07;;;;;;;12.13;6.30;;;;;;;15.40;44.57;99541.44;232343;1174;116162;-69
2021/04/20 15:51:19;;;;;;;13.25;5.65;;;;;;;15.33;44.82;99540.91;232645;1174;116926;-70
2021/04/20 15:56:39;;;;;;;5.80;5.20;;;;;;;15.20;45.45;99536.11;232506;1175;115576;-69
2021/04/20 16:01:46;;;;;;;6.88;6.05;;;;;;;15.07;45.47;99531.27;232439;1174;115552;-68
2021/04/20 16:06:54;;;;;;;7.43;6.13;;;;;;;14.99;45.68;99529.11;233002;1176;116098;-69
2021/04/20 16:12:09;;;;;;;6.48;5.88;;;;;;;14.89;46.00;99523.76;232671;1168;116071;-69
2021/04/20 16:17:20;;;;;;;8.00;6.40;;;;;;;14.78;46.05;99518.38;232521;1174;117256;-67
2021/04/20 16:22:27;;;;;;;8.43;5.68;;;;;;;14.69;46.70;99528.02;233135;1176;116160;-66
2021/04/20 16:27:32;;;;;;;9.63;6.60;;;;;;;14.63;47.54;99528.30;233196;1174;115766;-69
2021/04/20 16:32:40;;;;;;;7.83;7.07;;;;;;;14.59;47.91;99524.53;232530;1176;118813;-67
2021/04/20 16:38:22;;;;;;;7.33;6.25;;;;;;;14.58;48.21;99518.36;233740;1174;116325;-66
2021/04/20 16:44:03;;;;;;;7.50;6.30;;;;;;;14.61;47.91;99514.34;233692;1176;115670;-67
2021/04/20 16:49:20;;;;;;;9.93;5.93;;;;;;;14.59;48.50;99513.80;233605;1175;115235;-70
2021/04/20 16:54:42;;;;;;;6.85;6.25;;;;;;;14.52;49.14;99513.25;234385;1175;114947;-71
2021/04/20 17:00:06;;;;;;;6.58;5.78;;;;;;;14.42;50.28;99520.20;235200;1176;115814;-68
2021/04/20 17:05:39;;;;;;;9.08;6.38;;;;;;;14.28;50.11;99520.95;234087;1170;115126;-69
2021/04/20 17:10:50;;;;;;;6.48;5.80;;;;;;;14.15;50.85;99516.88;235103;1175;115532;-69
2021/04/20 17:16:31;;;;;;;12.53;7.27;;;;;;;14.01;51.48;99515.77;234396;1174;115767;-69
2021/04/20 17:21:45;;;;;;;6.63;5.90;;;;;;;13.84;52.10;99513.27;233350;1174;115853;-68
2021/04/20 17:27:16;;;;;;;6.73;5.88;;;;;;;13.62;52.57;99510.77;233165;1174;115858;-68
2021/04/20 17:32:20;;;;;;;8.60;5.47;;;;;;;13.42;52.86;99519.50;232548;1174;115781;-67
2021/04/20 17:37:36;;;;;;;7.13;6.43;;;;;;;13.27;53.29;99522.06;233667;1174;116404;-67
2021/04/20 17:43:07;;;;;;;6.53;5.30;;;;;;;13.08;53.92;99515.48;233678;1174;116106;-67
2021/04/20 17:48:23;;;;;;;6.15;5.65;;;;;;;12.87;54.80;99514.49;232668;1174;117362;-67
2021/04/20 17:53:52;;;;;;;12.13;6.30;;;;;;;12.70;55.41;99513.81;233767;1174;116379;-66
2021/04/20 17:59:26;;;;;;;7.08;6.25;;;;;;;12.45;55.76;99509.04;232734;1174;116614;-68
2021/04/20 18:05:03;;;;;;;7.63;5.83;;;;;;;12.29;56.29;99524.09;233213;1176;116300;-66
2021/04/20 18:10:26;;;;;;;7.20;5.35;;;;;;;12.09;57.48;99534.56;232957;1175;115949;-69
2021/04/20 18:15:38;;;;;;;8.30;5.37;;;;;;;11.89;57.11;99540.48;232236;1174;115890;-70
2021/04/20 18:21:11;;;;;;;6.93;5.90;;;;;;;11.66;57.92;99544.13;232433;1176;118627;-72
2021/04/20 18:26:33;;;;;;;7.10;6.25;;;;;;;11.48;58.31;99555.09;233000;1174;115867;-69
2021/04/20 18:32:04;;;;;;;7.50;4.87;;;;;;;11.28;58.87;99544.13;233641;1174;116018;-69
2021/04/20 18:37:30;;;;;;;6.28;5.70;;;;;;;11.09;59.27;99562.22;232535;1175;116070;-67
2021/04/20 18:42:55;;;;;;;8.97;7.03;;;;;;;11.06;60.50;99557.37;233538;1175;116089;-69
2021/04/20 18:48:27;;;;;;;7.83;7.03;;;;;;;10.97;60.81;99559.65;232307;1176;115772;-68
2021/04/20 18:53:48;;;;;;;8.85;7.10;;;;;;;10.80;60.78;99556.14;232699;1175;115290;-69
2021/04/20 18:59:05;;;;;;;11.48;8.20;;;;;;;10.71;61.34;99561.05;232578;1176;115161;-70
2021/04/20 19:04:24;;;;;;;9.17;8.03;;;;;;;10.61;61.42;99560.88;232486;1175;115304;-67
2021/04/20 19:09:34;;;;;;;13.93;8.55;;;;;;;10.48;61.65;99565.67;233039;1170;114831;-70
2021/04/20 19:14:50;;;;;;;9.70;8.00;;;;;;;10.32;61.70;99575.25;233290;1176;115929;-67
2021/04/20 19:19:59;;;;;;;8.75;7.20;;;;;;;10.11;62.37;99571.32;233870;1175;115696;-68
2021/04/20 19:25:16;;;;;;;13.88;9.15;;;;;;;9.98;61.86;99575.07;233886;1175;115716;-67
2021/04/20 19:30:20;;;;;;;11.50;10.15;;;;;;;9.92;62.91;99567.20;234197;1170;115440;-64
2021/04/20 19:35:48;;;;;;;11.05;9.68;;;;;;;9.83;63.15;99563.27;232680;1174;116526;-70
2021/04/20 19:41:09;;;;;;;13.65;8.50;;;;;;;9.75;63.64;99572.45;233498;1174;117105;-64
2021/04/20 19:46:16;;;;;;;22.60;9.73;;;;;;;9.68;64.63;99569.90;232831;1170;115666;-67
2021/04/20 19:51:25;;;;;;;12.68;9.55;;;;;;;9.64;64.22;99574.06;232532;1174;116576;-66
2021/04/20 19:56:31;;;;;;;12.07;10.60;;;;;;;9.67;64.35;99576.27;232390;1175;116522;-67
2021/04/20 20:01:47;;;;;;;15.07;9.30;;;;;;;9.56;64.85;99569.09;233147;1174;115836;-68
2021/04/20 20:06:55;;;;;;;16.30;11.10;;;;;;;9.48;64.97;99569.42;232562;1176;115939;-67
2021/04/20 20:12:03;;;;;;;22.50;13.00;;;;;;;9.45;65.62;99556.61;234132;1174;115541;-65
2021/04/20 20:17:10;;;;;;;21.18;14.38;;;;;;;9.51;65.72;99562.83;232741;1176;115702;-68
2021/04/20 20:22:27;;;;;;;32.40;17.10;;;;;;;9.49;66.14;99560.41;233473;1174;115566;-68
2021/04/20 20:27:35;;;;;;;15.93;12.90;;;;;;;9.47;65.73;99556.38;233263;1176;115671;-70
2021/04/20 20:32:49;;;;;;;17.80;10.53;;;;;;;9.45;66.02;99556.61;232349;1174;115469;-68
2021/04/20 20:37:59;;;;;;;20.70;13.63;;;;;;;9.38;66.73;99558.57;232482;1176;116666;-68
2021/04/20 20:43:08;;;;;;;20.07;13.73;;;;;;;9.44;67.40;99549.67;232417;1175;115774;-67
2021/04/20 20:48:15;;;;;;;13.93;12.18;;;;;;;9.50;67.73;99543.40;234009;1174;115000;-64
2021/04/20 20:53:29;;;;;;;;;;;;;;;9.51;67.02;99541.55;235034;1174;116520;-64
2021/04/20 20:58:43;;;;;;;16.03;13.35;;;;;;;9.47;67.75;99545.74;235665;1175;103010;-64
2021/04/20 21:04:24;;;;;;;23.73;13.33;;;;;;;9.43;67.02;99551.52;235027;1176;115586;-67
2021/04/20 21:09:39;;;;;;;20.13;12.85;;;;;;;9.49;67.46;99540.97;234987;1175;116362;-67
2021/04/20 21:14:50;;;;;;;24.80;14.33;;;;;;;9.52;67.40;99540.51;234990;1167;115177;-67
2021/04/20 21:20:02;;;;;;;15.43;12.17;;;;;;;9.51;67.47;99541.55;233495;1175;115522;-68
2021/04/20 21:25:10;;;;;;;17.55;12.93;;;;;;;9.41;67.93;99534.17;232355;1175;115726;-69
2021/04/20 21:30:26;;;;;;;15.53;11.90;;;;;;;9.41;67.58;99534.98;232444;1175;115075;-68
2021/04/20 21:35:41;;;;;;;17.85;12.18;;;;;;;9.35;68.32;99529.77;233137;1174;115290;-69
2021/04/20 21:40:47;;;;;;;20.73;14.37;;;;;;;9.26;67.57;99533.80;232653;1169;114842;-70
2021/04/20 21:46:02;;;;;;;18.40;12.47;;;;;;;9.18;68.53;99536.80;232955;1175;115512;-67
2021/04/20 21:51:12;;;;;;;13.63;12.00;;;;;;;9.14;68.31;99523.19;233604;1175;115546;-67
2021/04/20 21:56:28;;;;;;;17.65;13.63;;;;;;;9.07;68.73;99536.58;232599;1175;115161;-69
2021/04/20 22:01:34;;;;;;;25.75;14.35;;;;;;;8.99;68.48;99526.27;232533;1174;116067;-68
2021/04/20 22:06:39;;;;;;;17.35;13.15;;;;;;;8.92;69.14;99530.06;232597;1170;115685;-70
2021/04/20 22:12:02;;;;;;;23.33;14.23;;;;;;;8.86;68.87;99526.50;232990;1174;114907;-70
2021/04/20 22:17:10;;;;;;;25.23;19.45;;;;;;;8.82;69.22;99532.50;232533;1174;115652;-70
2021/04/20 22:22:15;;;;;;;30.53;18.33;;;;;;;8.68;69.07;99532.69;232632;1174;115450;-69
2021/04/20 22:27:20;;;;;;;22.35;15.85;;;;;;;8.54;69.33;99523.30;232597;1174;116288;-67
2021/04/20 22:32:25;;;;;;;19.90;14.48;;;;;;;8.39;68.65;99536.17;232926;1176;115625;-66
2021/04/20 22:37:35;;;;;;;24.50;16.77;;;;;;;8.23;68.42;99526.97;232531;1175;115210;-66
2021/04/20 22:42:42;;;;;;;22.73;16.80;;;;;;;8.16;69.24;99526.23;232561;1170;115474;-70
2021/04/20 22:48:12;;;;;;;23.95;17.05;;;;;;;8.10;69.02;99527.13;233496;1176;115852;-69
2021/04/20 22:53:35;;;;;;;24.25;17.05;;;;;;;8.03;69.55;99531.70;232593;1174;116484;-67
2021/04/20 22:58:51;;;;;;;16.68;14.65;;;;;;;7.86;69.40;99528.85;234773;1174;115062;-68
2021/04/20 23:04:06;;;;;;;24.40;17.33;;;;;;;7.67;68.98;99535.17;233284;1174;115617;-67
2021/04/20 23:09:17;;;;;;;30.20;18.50;;;;;;;7.53;68.98;99534.52;235009;1175;114811;-67
2021/04/20 23:14:31;;;;;;;21.68;15.38;;;;;;;7.49;69.85;99529.86;232679;1176;116449;-67
2021/04/20 23:19:37;;;;;;;21.35;14.98;;;;;;;7.40;69.66;99521.38;232442;1175;116321;-66
2021/04/20 23:24:46;;;;;;;23.45;20.30;;;;;;;7.31;70.07;99518.22;233732;1175;115650;-67
2021/04/20 23:30:18;;;;;;;22.75;17.90;;;;;;;7.29;70.10;99525.58;232863;1169;115728;-67
2021/04/20 23:35:26;;;;;;;30.45;20.35;;;;;;;7.20;70.29;99515.45;232360;1174;115578;-67
2021/04/20 23:40:30;;;;;;;19.03;14.98;;;;;;;6.98;69.72;99512.39;232916;1176;115175;-66
2021/04/20 23:45:35;;;;;;;24.35;15.08;;;;;;;6.70;69.64;99502.23;233151;1175;115766;-69